Time;durP1;ratioP1;P1;durP2;ratioP2;P2;SDS_P1;SDS_P2;PMS_P1;PMS_P2;Temp;Humidity;BMP_temperature;BMP_pressure;BME280_temperature;BME280_humidity;BME280_pressure;Samples;Min_cycle;Max_cycle;Signal;HPM_P1;HPM_P2
2022/10/31 00:01:13;;;;;;;22.73;15.90;;;;;;;17.95;62.37;100264.56;4951639;29;20059;-62
2022/10/31 00:03:39;;;;;;;26.58;15.73;;;;;;;17.96;61.87;100260.94;4951391;29;20055;-62
2022/10/31 00:06:06;;;;;;;22.98;15.75;;;;;;;17.98;62.01;100263.44;4952572;28;20105;-61
2022/10/31 00:08:33;;;;;;;27.38;15.82;;;;;;;17.98;61.85;100266.13;4952590;28;20174;-59
2022/10/31 00:10:59;;;;;;;25.30;16.30;;;;;;;17.98;62.21;100268.78;4952821;28;20047;-61
2022/10/31 00:13:26;;;;;;;24.65;15.82;;;;;;;17.96;62.08;100273.41;4952708;28;20062;-62
2022/10/31 00:15:53;;;;;;;23.67;14.98;;;;;;;17.94;62.12;100262.88;4952427;28;20504;-61
2022/10/31 00:18:19;;;;;;;24.05;14.25;;;;;;;17.91;61.90;100260.44;4952624;28;20547;-61
2022/10/31 00:20:46;;;;;;;23.98;14.68;;;;;;;17.91;62.11;100254.28;4952807;28;20051;-62
2022/10/31 00:23:12;;;;;;;22.98;14.02;;;;;;;17.89;62.08;100273.03;4952865;29;20473;-61
2022/10/31 00:25:39;;;;;;;24.90;14.18;;;;;;;17.88;61.96;100278.50;4952225;28;20047;-61
2022/10/31 00:28:08;;;;;;;25.15;15.13;;;;;;;17.84;62.18;100273.41;4952416;28;20527;-61
2022/10/31 00:30:35;;;;;;;22.95;14.65;;;;;;;17.83;61.98;100273.53;4951408;29;20077;-61
2022/10/31 00:33:03;;;;;;;20.30;13.48;;;;;;;17.80;62.25;100269.28;4952495;28;20051;-61
2022/10/31 00:35:30;;;;;;;23.40;14.77;;;;;;;17.79;61.84;100280.09;4954847;28;20047;-61
2022/10/31 00:37:56;;;;;;;23.13;13.68;;;;;;;17.76;61.95;100286.47;4955824;28;20047;-60
2022/10/31 00:40:23;;;;;;;19.55;13.55;;;;;;;17.73;61.98;100277.88;4956092;28;20043;-62
2022/10/31 00:42:49;;;;;;;22.35;13.60;;;;;;;17.70;62.24;100286.97;4955784;29;20142;-61
2022/10/31 00:45:16;;;;;;;20.75;13.25;;;;;;;17.67;62.31;100273.88;4955372;29;20053;-61
2022/10/31 00:47:43;;;;;;;20.65;13.55;;;;;;;17.65;62.36;100283.81;4955874;28;20055;-60
2022/10/31 00:50:09;;;;;;;19.65;13.48;;;;;;;17.62;62.16;100276.94;4954453;29;20051;-62
2022/10/31 00:52:36;;;;;;;23.45;14.30;;;;;;;17.62;62.46;100276.06;4955960;29;20062;-61
2022/10/31 00:55:03;;;;;;;18.60;12.52;;;;;;;17.60;62.42;100272.69;4955123;28;20495;-62
2022/10/31 00:57:29;;;;;;;22.20;13.80;;;;;;;17.57;61.98;100274.63;4955597;28;20043;-60
2022/10/31 00:59:56;;;;;;;22.33;13.65;;;;;;;17.57;62.22;100279.13;4955457;28;20043;-62
2022/10/31 01:02:23;;;;;;;21.10;13.43;;;;;;;17.55;62.16;100281.03;4955838;28;20063;-61
2022/10/31 01:04:49;;;;;;;21.38;13.52;;;;;;;17.52;62.23;100276.78;4954205;29;20047;-60
2022/10/31 01:07:16;;;;;;;24.65;14.68;;;;;;;17.51;62.12;100284.91;4955447;28;20099;-63
2022/10/31 01:09:43;;;;;;;20.33;14.20;;;;;;;17.48;62.16;100286.00;4955401;28;20134;-61
2022/10/31 01:12:09;;;;;;;22.30;13.38;;;;;;;17.47;62.34;100286.09;4955235;28;20463;-61
2022/10/31 01:14:36;;;;;;;24.98;15.07;;;;;;;17.45;62.66;100288.88;4955295;28;20404;-60
2022/10/31 01:17:02;;;;;;;22.30;15.23;;;;;;;17.43;62.76;100290.81;4963798;28;20118;-60
2022/10/31 01:19:29;;;;;;;24.77;15.38;;;;;;;17.40;62.89;100299.91;4974685;28;20054;-62
2022/10/31 01:21:55;;;;;;;25.08;15.25;;;;;;;17.41;62.79;100296.25;4974450;28;20142;-61
2022/10/31 01:24:22;;;;;;;20.88;14.88;;;;;;;17.41;62.89;100290.09;4974436;28;20055;-61
2022/10/31 01:26:48;;;;;;;28.27;15.88;;;;;;;17.39;63.12;100287.56;4973818;28;20447;-61
2022/10/31 01:29:15;;;;;;;26.02;15.30;;;;;;;17.40;63.05;100293.72;4989192;28;20043;-62
2022/10/31 01:31:41;;;;;;;24.52;14.95;;;;;;;17.38;62.88;100283.19;4974353;28;20093;-62
2022/10/31 01:34:13;;;;;;;21.13;14.70;;;;;;;17.37;63.51;100294.81;4973189;28;20050;-62
2022/10/31 01:36:40;;;;;;;31.50;15.88;;;;;;;17.38;62.83;100293.84;4973926;28;20106;-60
2022/10/31 01:39:12;;;;;;;25.27;15.48;;;;;;;17.36;63.54;100293.13;4963364;28;20057;-60
2022/10/31 01:41:45;;;;;;;28.90;14.93;;;;;;;17.35;63.15;100295.88;4955689;28;20105;-61
2022/10/31 01:44:15;;;;;;;22.48;14.13;;;;;;;17.33;63.22;100293.34;4953822;29;20291;-61
2022/10/31 01:46:53;;;;;;;21.33;14.68;;;;;;;17.32;62.86;100291.66;4953292;28;20141;-61
2022/10/31 01:49:37;;;;;;;18.85;13.68;;;;;;;17.26;63.30;100289.44;4954719;28;20456;-61
2022/10/31 01:52:18;;;;;;;25.90;15.57;;;;;;;17.25;63.64;100285.09;4953300;29;20059;-61
2022/10/31 01:55:09;;;;;;;24.25;15.38;;;;;;;17.22;63.41;100285.31;4954656;28;20110;-62
2022/10/31 01:57:40;;;;;;;21.77;15.43;;;;;;;17.22;62.94;100280.88;4954433;28;20115;-61
2022/10/31 02:00:10;;;;;;;22.23;14.95;;;;;;;17.21;63.07;100283.66;4954425;28;20587;-62
2022/10/31 02:02:36;;;;;;;24.42;14.68;;;;;;;17.19;62.70;100284.63;4953276;28;20149;-62
2022/10/31 02:05:08;;;;;;;22.13;15.43;;;;;;;17.16;63.09;100289.34;4954272;29;20126;-61
2022/10/31 02:07:51;;;;;;;22.13;14.98;;;;;;;17.10;63.77;100287.97;4953079;29;20047;-63
2022/10/31 02:10:21;;;;;;;25.70;14.05;;;;;;;17.11;63.19;100289.66;4953082;29;20487;-61
2022/10/31 02:12:52;;;;;;;25.65;15.43;;;;;;;17.07;63.34;100285.56;4952980;28;20068;-62
2022/10/31 02:15:19;;;;;;;21.33;14.63;;;;;;;17.06;62.92;100292.69;4953943;28;20051;-61
2022/10/31 02:17:46;;;;;;;22.45;15.48;;;;;;;17.04;63.02;100299.94;4954197;28;20054;-61
2022/10/31 02:20:20;;;;;;;20.85;14.70;;;;;;;17.00;64.01;100306.41;4952956;29;20094;-61
2022/10/31 02:23:02;;;;;;;28.45;16.23;;;;;;;16.98;63.75;100305.69;4952759;29;20043;-61
2022/10/31 02:25:28;;;;;;;22.85;15.32;;;;;;;16.99;62.83;100304.72;4953749;28;20452;-62
2022/10/31 02:28:20;;;;;;;26.45;16.65;;;;;;;16.92;64.19;100296.38;4954058;28;20055;-62
2022/10/31 02:31:05;;;;;;;23.80;15.10;;;;;;;16.90;63.73;100300.94;4954170;28;20047;-62
2022/10/31 02:33:40;;;;;;;25.45;14.32;;;;;;;16.91;63.70;100296.47;4953667;29;20146;-60
2022/10/31 02:36:27;;;;;;;28.33;15.45;;;;;;;16.86;63.83;100299.47;4952279;29;20495;-60
2022/10/31 02:39:30;;;;;;;23.83;16.05;;;;;;;16.82;64.38;100299.81;4953842;28;20491;-61
2022/10/31 02:42:03;;;;;;;21.43;14.37;;;;;;;16.85;63.00;100295.13;4953818;28;20067;-62
2022/10/31 02:44:52;;;;;;;18.80;13.13;;;;;;;16.77;63.84;100297.50;4953878;28;20302;-62
2022/10/31 02:47:26;;;;;;;18.17;13.80;;;;;;;16.77;63.20;100298.34;4953521;28;20460;-61
2022/10/31 02:49:56;;;;;;;20.75;14.18;;;;;;;16.76;63.09;100291.34;4953681;28;20047;-61
2022/10/31 02:52:31;;;;;;;20.30;13.13;;;;;;;16.71;63.52;100292.66;4952162;29;20086;-62
2022/10/31 02:54:58;;;;;;;25.00;13.55;;;;;;;16.71;62.77;100295.31;4953452;28;20118;-63
2022/10/31 02:57:32;;;;;;;20.05;13.00;;;;;;;16.66;63.18;100300.94;4953182;28;20051;-62
2022/10/31 03:00:02;;;;;;;21.15;11.85;;;;;;;16.65;62.80;100302.78;4953567;28;20408;-62
2022/10/31 03:02:29;;;;;;;15.32;12.00;;;;;;;16.62;62.50;100307.47;4952189;29;20047;-60
2022/10/31 03:05:23;;;;;;;20.08;12.65;;;;;;;16.55;63.06;100307.06;4953285;28;20404;-60
2022/10/31 03:08:04;;;;;;;17.33;12.63;;;;;;;16.49;63.20;100312.84;4953226;29;20058;-61
2022/10/31 03:11:01;;;;;;;21.50;14.13;;;;;;;16.43;63.49;100311.47;4952213;29;20114;-61
2022/10/31 03:13:51;;;;;;;20.52;14.45;;;;;;;16.41;63.72;100324.03;4941560;28;20047;-61
2022/10/31 03:16:24;;;;;;;17.92;13.88;;;;;;;16.41;62.81;100319.56;4952935;28;20142;-61
2022/10/31 03:19:03;;;;;;;25.00;15.63;;;;;;;16.36;63.24;100315.53;4953145;28;20547;-61
2022/10/31 03:21:35;;;;;;;24.23;15.77;;;;;;;16.31;64.22;100321.19;4951985;29;20103;-62
2022/10/31 03:24:03;;;;;;;21.38;14.55;;;;;;;16.30;63.62;100318.66;4953330;28;20090;-62
2022/10/31 03:26:31;;;;;;;23.40;15.40;;;;;;;16.28;63.74;100313.44;4952913;28;20114;-61
2022/10/31 03:29:04;;;;;;;22.48;15.15;;;;;;;16.23;64.52;100311.09;4953101;28;20047;-62
2022/10/31 03:31:39;;;;;;;24.13;14.95;;;;;;;16.23;64.36;100311.09;4952917;28;20146;-61
2022/10/31 03:34:07;;;;;;;21.35;14.23;;;;;;;16.24;63.82;100301.34;4951529;29;20054;-60
2022/10/31 03:36:37;;;;;;;21.23;15.23;;;;;;;16.22;63.99;100308.59;4951273;28;20055;-61
2022/10/31 03:39:08;;;;;;;26.33;14.80;;;;;;;16.22;63.75;100304.09;4952816;28;20407;-61
2022/10/31 03:41:41;;;;;;;21.83;14.90;;;;;;;16.20;64.32;100310.47;4951346;28;20047;-61
2022/10/31 03:44:11;;;;;;;;;;;;;;;16.20;63.78;100316.66;4953201;28;20051;-61
2022/10/31 03:46:38;;;;;;;23.00;13.80;;;;;;;16.22;63.25;100314.72;4951640;29;19922;-61
2022/10/31 03:49:05;;;;;;;20.33;14.80;;;;;;;16.20;63.47;100315.78;4951875;29;20083;-60
2022/10/31 03:51:46;;;;;;;22.48;15.95;;;;;;;16.11;64.88;100317.31;4953065;28;20055;-61
2022/10/31 03:54:28;;;;;;;23.00;16.35;;;;;;;16.08;65.08;100313.09;4952799;28;20055;-62
2022/10/31 03:57:05;;;;;;;27.73;16.75;;;;;;;16.11;64.63;100315.50;4952535;28;20145;-62
2022/10/31 03:59:54;;;;;;;18.70;14.88;;;;;;;16.10;64.36;100311.16;4952792;28;20412;-62
2022/10/31 04:02:26;;;;;;;24.00;15.52;;;;;;;16.10;64.85;100315.59;4947552;29;20047;-61
2022/10/31 04:04:53;;;;;;;22.90;14.90;;;;;;;16.11;64.51;100312.84;4951297;29;20055;-62
2022/10/31 04:07:23;;;;;;;21.45;15.93;;;;;;;16.10;64.87;100304.97;4952494;28;20051;-63
2022/10/31 04:09:53;;;;;;;21.95;14.50;;;;;;;16.10;64.80;100305.84;4954610;28;20051;-60
2022/10/31 04:12:22;;;;;;;18.40;14.27;;;;;;;16.11;64.40;100312.00;4956612;28;20051;-62
2022/10/31 04:14:50;;;;;;;21.73;14.82;;;;;;;16.11;64.59;100309.34;4956436;28;20108;-61
2022/10/31 04:17:19;;;;;;;22.23;15.70;;;;;;;16.10;64.80;100304.97;4955156;29;20606;-60
2022/10/31 04:19:46;;;;;;;22.15;16.10;;;;;;;16.11;64.50;100306.69;4954979;29;20507;-62
2022/10/31 04:22:13;;;;;;;25.30;16.38;;;;;;;16.11;64.68;100301.38;4956537;28;20130;-61
2022/10/31 04:24:40;;;;;;;27.30;17.05;;;;;;;16.10;64.78;100311.16;4956341;29;20082;-61
2022/10/31 04:27:07;;;;;;;21.98;16.20;;;;;;;16.11;64.92;100309.34;4955930;28;20639;-62
2022/10/31 04:29:33;;;;;;;22.17;16.20;;;;;;;16.11;64.65;100312.00;4956162;28;20426;-60
2022/10/31 04:32:00;;;;;;;24.63;15.18;;;;;;;16.09;64.60;100313.91;4956061;28;20059;-62
2022/10/31 04:34:26;;;;;;;23.92;15.25;;;;;;;16.07;64.53;100321.16;4955815;28;20051;-60
2022/10/31 04:36:53;;;;;;;20.88;15.88;;;;;;;16.07;64.32;100323.81;4955584;28;20047;-62
2022/10/31 04:39:19;;;;;;;20.30;15.43;;;;;;;16.05;64.46;100317.75;4956027;28;20066;-60
2022/10/31 04:41:51;;;;;;;22.10;14.20;;;;;;;16.04;64.32;100319.56;4956233;29;20102;-61
2022/10/31 04:44:18;;;;;;;18.70;14.48;;;;;;;16.04;64.29;100316.06;4955925;28;20130;-60
2022/10/31 04:46:45;;;;;;;18.55;13.05;;;;;;;16.03;64.22;100317.84;4955481;28;20081;-60
2022/10/31 04:49:11;;;;;;;21.15;13.85;;;;;;;16.02;64.08;100319.66;4955638;28;20138;-62
2022/10/31 04:51:38;;;;;;;23.65;13.27;;;;;;;16.01;63.96;100315.28;4955950;28;20134;-61
2022/10/31 04:54:05;;;;;;;18.85;13.98;;;;;;;16.00;63.96;100320.75;4955872;28;20051;-61
2022/10/31 04:56:31;;;;;;;19.05;13.68;;;;;;;15.97;63.96;100316.50;4955403;28;20397;-62
2022/10/31 04:58:58;;;;;;;20.38;12.93;;;;;;;15.97;63.91;100312.97;4954653;29;20066;-62
2022/10/31 05:01:24;;;;;;;19.42;13.68;;;;;;;15.94;63.97;100319.38;4954231;29;20058;-62
2022/10/31 05:03:51;;;;;;;18.70;13.65;;;;;;;15.93;63.82;100314.13;4955467;28;20141;-60
2022/10/31 05:06:17;;;;;;;20.50;13.77;;;;;;;15.92;63.84;100309.78;4955237;28;20047;-61
2022/10/31 05:08:44;;;;;;;20.63;12.80;;;;;;;15.89;63.80;100306.38;4955488;28;20062;-61
2022/10/31 05:11:11;;;;;;;20.95;15.07;;;;;;;15.87;63.84;100307.44;4955356;28;20047;-61
2022/10/31 05:13:37;;;;;;;22.02;15.38;;;;;;;15.86;63.90;100309.22;4955410;28;20047;-62
2022/10/31 05:16:04;;;;;;;23.70;15.98;;;;;;;15.83;64.00;100314.78;4955062;28;20082;-61
2022/10/31 05:18:31;;;;;;;23.17;14.77;;;;;;;15.82;64.16;100304.25;4955133;28;20135;-62
2022/10/31 05:20:57;;;;;;;21.65;14.95;;;;;;;15.79;64.14;100297.38;4955141;28;20047;-62
2022/10/31 05:23:24;;;;;;;19.80;14.05;;;;;;;15.78;64.13;100301.00;4955316;28;20063;-60
2022/10/31 05:25:50;;;;;;;18.90;13.75;;;;;;;15.77;64.16;100293.97;4953445;29;20415;-61
2022/10/31 05:28:17;;;;;;;23.00;14.50;;;;;;;15.75;64.25;100287.94;4955059;28;20138;-61
2022/10/31 05:30:43;;;;;;;18.73;13.32;;;;;;;15.74;64.15;100289.72;4954845;28;20055;-62
2022/10/31 05:33:10;;;;;;;19.23;14.13;;;;;;;15.73;64.22;100298.66;4955321;28;20051;-61
2022/10/31 05:35:37;;;;;;;24.63;16.25;;;;;;;15.71;64.29;100297.06;4954760;28;20047;-60
2022/10/31 05:38:03;;;;;;;21.80;15.10;;;;;;;15.71;64.25;100310.31;4954970;28;20055;-61
2022/10/31 05:40:30;;;;;;;19.42;14.45;;;;;;;15.68;64.22;100303.44;4954853;28;20134;-63
2022/10/31 05:42:58;;;;;;;17.55;12.77;;;;;;;15.68;64.04;100308.75;4954818;28;20054;-62
2022/10/31 05:45:25;;;;;;;21.77;13.63;;;;;;;15.68;63.96;100303.44;4954327;28;20055;-60
2022/10/31 05:47:56;;;;;;;22.42;13.50;;;;;;;15.65;64.03;100308.94;4954594;28;20138;-63
2022/10/31 05:50:24;;;;;;;18.38;12.75;;;;;;;15.64;63.94;100300.13;4953395;29;20047;-62
2022/10/31 05:52:59;;;;;;;19.45;13.88;;;;;;;15.61;64.38;100299.50;4954541;28;20587;-61
2022/10/31 05:55:27;;;;;;;21.52;12.30;;;;;;;15.62;63.85;100306.50;4954248;28;20508;-62
2022/10/31 05:57:54;;;;;;;18.00;12.95;;;;;;;15.60;64.34;100306.63;4953127;29;20047;-61
2022/10/31 06:00:22;;;;;;;22.23;14.65;;;;;;;15.61;64.47;100296.84;4953506;29;20059;-62
2022/10/31 06:02:49;;;;;;;22.20;14.52;;;;;;;15.62;64.40;100298.53;4953295;29;20055;-63
2022/10/31 06:05:16;;;;;;;21.40;13.57;;;;;;;15.62;64.45;100295.88;4954079;28;20078;-61
2022/10/31 06:07:42;;;;;;;20.00;12.52;;;;;;;15.62;64.40;100306.50;4952982;29;20051;-61
2022/10/31 06:10:10;;;;;;;19.67;13.38;;;;;;;15.63;64.40;100301.09;4954071;28;20141;-62
2022/10/31 06:12:37;;;;;;;17.35;12.00;;;;;;;15.64;64.38;100309.91;4954400;28;20047;-60
2022/10/31 06:15:08;;;;;;;21.45;14.07;;;;;;;15.62;65.00;100307.34;4954021;28;20047;-62
2022/10/31 06:17:35;;;;;;;21.65;14.32;;;;;;;15.65;64.46;100308.94;4952795;29;20055;-61
2022/10/31 06:20:03;;;;;;;20.95;14.40;;;;;;;15.66;64.64;100307.97;4954241;28;20051;-64
2022/10/31 06:22:30;;;;;;;18.83;12.48;;;;;;;15.66;64.41;100307.97;4954124;29;20110;-62
2022/10/31 06:24:56;;;;;;;22.63;13.13;;;;;;;15.67;64.31;100309.69;4953721;28;20452;-61
2022/10/31 06:27:23;;;;;;;17.63;12.57;;;;;;;15.66;64.07;100310.63;4953855;28;20064;-62
2022/10/31 06:29:50;;;;;;;16.27;12.10;;;;;;;15.67;64.07;100303.53;4952842;29;20063;-60
2022/10/31 06:32:17;;;;;;;18.95;12.63;;;;;;;15.65;64.04;100300.97;4952272;28;20055;-61
2022/10/31 06:34:44;;;;;;;17.95;13.20;;;;;;;15.64;63.99;100312.56;4954186;28;20062;-61
2022/10/31 06:37:11;;;;;;;15.63;10.45;;;;;;;15.63;64.07;100308.22;4953604;28;20075;-61
2022/10/31 06:39:38;;;;;;;16.23;11.02;;;;;;;15.62;64.14;100306.50;4952662;29;20051;-60
2022/10/31 06:42:05;;;;;;;19.10;12.05;;;;;;;15.61;63.96;100310.97;4953775;28;20058;-61
2022/10/31 06:44:32;;;;;;;17.30;11.80;;;;;;;15.60;63.99;100308.41;4953918;28;20063;-60
2022/10/31 06:46:59;;;;;;;16.75;10.88;;;;;;;15.59;64.01;100306.72;4952173;29;20596;-61
2022/10/31 06:49:25;;;;;;;21.92;11.38;;;;;;;15.59;63.96;100312.88;4953728;28;20492;-60
2022/10/31 06:51:52;;;;;;;14.93;9.68;;;;;;;15.58;64.17;100311.19;4953298;28;20059;-60
2022/10/31 06:54:18;;;;;;;17.58;9.60;;;;;;;15.59;64.19;100309.38;4953793;29;20130;-61
2022/10/31 06:56:47;;;;;;;12.93;9.25;;;;;;;15.59;64.37;100314.69;4953267;29;20043;-61
2022/10/31 06:59:15;;;;;;;18.48;10.88;;;;;;;15.61;64.44;100315.41;4952340;29;20630;-61
2022/10/31 07:01:41;;;;;;;19.33;9.98;;;;;;;15.65;64.38;100319.56;4952391;29;20138;-61
2022/10/31 07:04:10;;;;;;;16.98;10.05;;;;;;;15.68;64.41;100318.50;4952163;29;20055;-62
2022/10/31 07:06:36;;;;;;;14.93;9.30;;;;;;;15.71;64.27;100320.94;4952871;28;20051;-61
2022/10/31 07:09:04;;;;;;;13.05;9.45;;;;;;;15.74;64.22;100326.88;4953017;29;20531;-60
2022/10/31 07:11:30;;;;;;;15.15;9.80;;;;;;;15.76;64.11;100324.97;4952158;29;20058;-60
2022/10/31 07:13:57;;;;;;;14.75;9.48;;;;;;;15.80;64.25;100330.06;4953248;29;20097;-61
2022/10/31 07:16:23;;;;;;;18.20;9.57;;;;;;;15.82;64.21;100333.47;4952936;29;20061;-62
2022/10/31 07:18:50;;;;;;;13.85;9.27;;;;;;;15.83;64.25;100333.34;4953091;29;20051;-61
2022/10/31 07:21:16;;;;;;;13.32;8.93;;;;;;;15.86;64.24;100329.63;4952175;29;20063;-60
2022/10/31 07:23:43;;;;;;;11.43;8.75;;;;;;;15.89;64.33;100332.09;4953072;29;20544;-62
2022/10/31 07:26:10;;;;;;;10.85;7.88;;;;;;;15.92;64.26;100337.16;4953101;28;20409;-63
2022/10/31 07:28:36;;;;;;;12.73;8.88;;;;;;;15.95;64.28;100326.38;4952879;29;20055;-60
2022/10/31 07:31:03;;;;;;;12.20;8.02;;;;;;;15.99;64.29;100329.63;4952879;29;20526;-60
2022/10/31 07:33:30;;;;;;;11.75;7.47;;;;;;;16.02;64.35;100327.63;4953025;29;20404;-62
2022/10/31 07:35:56;;;;;;;10.02;6.32;;;;;;;16.07;64.15;100347.72;4953022;29;20055;-61
2022/10/31 07:38:23;;;;;;;8.57;6.07;;;;;;;16.10;64.24;100340.38;4953041;29;20047;-62
2022/10/31 07:40:52;;;;;;;6.93;5.60;;;;;;;16.13;64.66;100336.63;4953140;29;20059;-60
2022/10/31 07:43:19;;;;;;;9.48;5.70;;;;;;;16.19;64.37;100338.88;4952953;28;20110;-61
2022/10/31 07:45:51;;;;;;;9.70;5.10;;;;;;;16.21;64.62;100336.94;4955910;29;20055;-63
2022/10/31 07:48:17;;;;;;;6.28;4.97;;;;;;;16.28;64.67;100330.22;4955737;29;20055;-61
2022/10/31 07:50:44;;;;;;;8.13;5.03;;;;;;;16.33;64.52;100329.06;4956821;29;20401;-60
2022/10/31 07:53:13;;;;;;;8.68;5.30;;;;;;;16.39;64.28;100331.25;4956751;28;20615;-63
2022/10/31 07:55:39;;;;;;;9.45;5.18;;;;;;;16.46;64.39;100332.53;4955201;29;20089;-60
2022/10/31 07:58:08;;;;;;;8.35;5.50;;;;;;;16.51;64.40;100338.34;4956717;29;20058;-61
2022/10/31 08:00:36;;;;;;;10.20;5.18;;;;;;;16.59;64.40;100340.44;4956557;29;20066;-61
2022/10/31 08:03:07;;;;;;;9.77;5.50;;;;;;;16.64;64.46;100342.75;4955264;29;20053;-62
2022/10/31 08:05:35;;;;;;;10.88;5.93;;;;;;;16.70;64.18;100334.31;4955247;29;20058;-61
2022/10/31 08:08:02;;;;;;;11.68;7.05;;;;;;;16.76;64.22;100336.56;4955338;29;20047;-61
2022/10/31 08:10:29;;;;;;;13.93;9.23;;;;;;;16.83;63.98;100338.75;4955295;29;20106;-62
2022/10/31 08:12:59;;;;;;;14.18;9.65;;;;;;;16.87;63.99;100341.06;4956447;29;20101;-60
2022/10/31 08:15:26;;;;;;;17.27;10.52;;;;;;;16.92;63.91;100338.91;4956184;29;20055;-61
2022/10/31 08:17:53;;;;;;;18.77;11.52;;;;;;;16.96;63.69;100342.19;4956386;28;20512;-62
2022/10/31 08:20:20;;;;;;;19.08;12.00;;;;;;;17.00;63.78;100332.16;4956377;28;20063;-61
2022/10/31 08:23:13;;;;;;;16.45;11.48;;;;;;;16.98;63.80;100334.09;4956260;29;20051;-60
2022/10/31 08:25:41;;;;;;;18.58;10.95;;;;;;;17.06;63.61;100331.72;4954239;28;20108;-60
2022/10/31 08:28:10;;;;;;;13.13;9.45;;;;;;;17.07;63.49;100325.44;4955193;29;20051;-61
2022/10/31 08:30:37;;;;;;;13.70;9.93;;;;;;;17.08;63.54;100327.13;4954767;29;20047;-61
2022/10/31 08:33:18;;;;;;;16.45;9.68;;;;;;;17.08;63.52;100327.13;4956206;29;20047;-62
2022/10/31 08:35:45;;;;;;;19.75;9.73;;;;;;;17.12;63.44;100323.28;4955723;29;20062;-60
2022/10/31 08:38:12;;;;;;;12.02;8.05;;;;;;;17.14;63.41;100309.88;4955972;29;20061;-60
2022/10/31 08:40:39;;;;;;;15.88;9.15;;;;;;;17.15;63.18;100303.56;4955018;29;20443;-61
2022/10/31 08:43:11;;;;;;;13.90;8.88;;;;;;;17.15;63.35;100307.09;4954719;29;20138;-61
2022/10/31 08:45:38;;;;;;;10.38;8.15;;;;;;;17.19;63.25;100310.34;4955638;29;20051;-60
2022/10/31 08:48:09;;;;;;;11.20;7.70;;;;;;;17.21;63.37;100316.44;4955826;29;20083;-61
2022/10/31 08:50:36;;;;;;;11.05;7.35;;;;;;;17.24;63.17;100312.69;4954767;29;20055;-62
2022/10/31 08:53:05;;;;;;;9.73;6.47;;;;;;;17.26;63.35;100311.59;4962150;29;20058;-60
2022/10/31 08:55:36;;;;;;;8.77;6.45;;;;;;;17.27;62.91;100307.13;4953618;28;20154;-62
2022/10/31 08:58:05;;;;;;;11.90;6.80;;;;;;;17.31;63.16;100301.44;4954623;29;20416;-62
2022/10/31 09:00:32;;;;;;;19.83;8.07;;;;;;;17.35;63.14;100299.41;4959458;29;20114;-61
2022/10/31 09:03:10;;;;;;;10.38;6.38;;;;;;;17.37;62.92;100300.13;4955127;29;20051;-61
2022/10/31 09:05:37;;;;;;;7.88;5.38;;;;;;;17.46;62.74;100295.91;4955462;29;20062;-60
2022/10/31 09:08:04;;;;;;;6.82;5.25;;;;;;;17.52;63.16;100297.22;4955389;29;20047;-60
2022/10/31 09:10:33;;;;;;;7.47;4.93;;;;;;;17.58;63.25;100296.78;4954322;29;20106;-62
2022/10/31 09:13:06;;;;;;;55.78;13.10;;;;;;;17.65;63.10;100310.44;4954117;29;20102;-61
2022/10/31 09:15:34;;;;;;;7.43;4.15;;;;;;;17.74;62.46;100307.06;4955257;29;20083;-61
2022/10/31 09:18:01;;;;;;;8.35;4.18;;;;;;;17.82;62.17;100295.78;4954361;29;20062;-61
2022/10/31 09:20:29;;;;;;;7.90;4.20;;;;;;;17.88;61.59;100290.00;4955255;29;20062;-61
2022/10/31 09:22:57;;;;;;;6.22;4.55;;;;;;;17.92;61.46;100283.47;4954181;29;20051;-61
2022/10/31 09:25:24;;;;;;;5.43;3.88;;;;;;;17.98;62.08;100282.97;4954979;29;20106;-62
2022/10/31 09:27:54;;;;;;;6.75;4.57;;;;;;;18.03;61.74;100279.94;4955110;29;20066;-60
2022/10/31 09:30:21;;;;;;;8.60;4.22;;;;;;;18.10;61.35;100286.47;4953772;29;20412;-60
2022/10/31 09:32:47;;;;;;;9.90;5.43;;;;;;;18.17;61.21;100283.34;4954989;29;20567;-62
2022/10/31 09:35:14;;;;;;;7.18;5.35;;;;;;;18.22;61.10;100283.81;4954553;29;20496;-62
2022/10/31 09:37:44;;;;;;;11.20;6.50;;;;;;;18.28;61.05;100291.28;4955036;29;20098;-60
2022/10/31 09:40:11;;;;;;;10.18;6.28;;;;;;;18.32;60.98;100287.41;4954908;29;20134;-60
2022/10/31 09:42:59;;;;;;;12.40;7.35;;;;;;;18.38;60.49;100298.56;4954701;29;20663;-61
2022/10/31 09:45:50;;;;;;;12.50;8.00;;;;;;;18.46;60.37;100304.06;4954644;29;20133;-60
2022/10/31 09:48:17;;;;;;;9.77;7.38;;;;;;;18.55;60.74;100300.69;4954573;29;20502;-61
2022/10/31 09:50:49;;;;;;;13.57;8.30;;;;;;;18.60;60.71;100298.47;4954728;29;20058;-60
2022/10/31 09:53:34;;;;;;;13.40;8.65;;;;;;;18.64;60.33;100287.56;4954757;29;20052;-60
2022/10/31 09:56:04;;;;;;;16.00;9.23;;;;;;;18.74;60.70;100288.50;4954448;29;20492;-61
2022/10/31 09:58:35;;;;;;;15.93;10.18;;;;;;;18.81;61.05;100278.16;4954550;29;20456;-62
2022/10/31 10:01:06;;;;;;;16.15;9.85;;;;;;;18.91;61.39;100286.22;4953443;29;20047;-61
2022/10/31 10:03:41;;;;;;;20.67;10.55;;;;;;;18.99;61.29;100289.09;4953142;29;20526;-60
2022/10/31 10:06:18;;;;;;;16.67;9.80;;;;;;;19.12;61.07;100287.13;4952691;28;20570;-60
2022/10/31 10:08:45;;;;;;;16.35;10.82;;;;;;;19.27;61.75;100290.31;4953856;29;20655;-60
2022/10/31 10:11:24;;;;;;;14.45;10.55;;;;;;;19.36;60.83;100288.66;4953139;29;20054;-62
2022/10/31 10:14:15;;;;;;;14.05;10.50;;;;;;;19.51;60.76;100291.81;4954261;28;20086;-61
2022/10/31 10:17:06;;;;;;;18.77;11.63;;;;;;;19.62;60.67;100293.56;4954083;29;20053;-60
2022/10/31 10:20:03;;;;;;;17.40;10.55;;;;;;;19.74;60.33;100296.97;4954121;29;20504;-60
2022/10/31 10:22:54;;;;;;;18.13;11.90;;;;;;;19.85;60.62;100288.03;4954061;28;20083;-62
2022/10/31 10:25:34;;;;;;;18.73;12.23;;;;;;;19.95;60.31;100288.06;4952781;29;20051;-61
2022/10/31 10:28:12;;;;;;;17.80;12.20;;;;;;;20.03;60.38;100279.41;4953932;28;20048;-61
2022/10/31 10:30:48;;;;;;;18.73;12.60;;;;;;;20.09;59.87;100283.34;4954668;29;20562;-61
2022/10/31 10:33:30;;;;;;;18.58;13.02;;;;;;;20.14;60.24;100281.97;4952905;29;20074;-62
2022/10/31 10:36:03;;;;;;;19.17;12.88;;;;;;;20.23;60.00;100280.31;4952552;29;20053;-62
2022/10/31 10:38:33;;;;;;;20.60;13.48;;;;;;;20.28;59.85;100272.72;4952572;29;20547;-60
2022/10/31 10:41:04;;;;;;;22.38;14.25;;;;;;;20.35;59.95;100281.03;4953732;28;20638;-62
2022/10/31 10:43:35;;;;;;;24.15;14.68;;;;;;;20.38;59.80;100266.53;4953742;28;20063;-61
2022/10/31 10:49:11;;;;;;;21.85;14.35;;;;;;;20.41;59.45;100266.25;4953728;29;20043;-62
2022/10/31 10:51:44;;;;;;;19.92;12.75;;;;;;;20.47;59.05;100267.50;4953631;28;20066;-61
2022/10/31 10:54:36;;;;;;;20.65;12.75;;;;;;;20.52;59.29;100267.97;4954046;28;20142;-60
2022/10/31 10:57:06;;;;;;;22.20;13.07;;;;;;;20.52;58.76;100270.63;4952236;29;20106;-60
2022/10/31 10:59:34;;;;;;;22.40;13.10;;;;;;;20.57;59.71;100274.56;4953586;28;20051;-61
2022/10/31 11:02:00;;;;;;;18.58;13.60;;;;;;;20.68;59.87;100262.88;4953403;28;20051;-61
2022/10/31 11:04:35;;;;;;;24.67;14.48;;;;;;;20.78;58.78;100268.22;4953660;28;20070;-63
2022/10/31 11:07:01;;;;;;;22.63;14.35;;;;;;;20.93;59.15;100259.81;4952071;29;20389;-61
2022/10/31 11:09:28;;;;;;;22.70;14.70;;;;;;;21.01;58.78;100253.72;4953523;28;20054;-61
2022/10/31 11:11:56;;;;;;;23.83;14.82;;;;;;;21.07;58.16;100245.13;4953313;28;20050;-61
2022/10/31 11:14:23;;;;;;;19.17;14.02;;;;;;;21.12;57.71;100245.50;4952107;29;20051;-62
2022/10/31 11:17:13;;;;;;;19.23;14.48;;;;;;;21.13;57.23;100233.00;4951800;29;20110;-60
2022/10/31 11:19:40;;;;;;;24.10;14.70;;;;;;;21.18;57.53;100226.22;4939966;29;20047;-61
2022/10/31 11:22:17;;;;;;;25.00;14.90;;;;;;;21.14;56.80;100223.97;4953257;28;20061;-60
2022/10/31 11:24:44;;;;;;;23.60;14.38;;;;;;;21.15;57.06;100214.97;4953018;28;20055;-62
2022/10/31 11:27:19;;;;;;;22.02;12.75;;;;;;;21.06;56.68;100198.78;4952802;28;20057;-61
2022/10/31 11:29:46;;;;;;;22.92;14.35;;;;;;;21.04;56.82;100192.72;4951963;29;20047;-61